MET'MAP v2.0
soon released !

Expected late october,
this new version will be
more efficient, smarter,
and hosted on a brand new
server x3 powerfull...
...and still free !


Not compatible ?
Try the mobile version !

LOG IN : | Subscribe | Disclaimer | Who is Orbifly ? |
ICAO code :
Legend : VFR Marginal VFR IFR Intensive IFR Very Intensive IFR
Visi :
Ceiling :
>= 8 km
>= 3000ft
5 to 8 km
1000 to 3000 ft
1500m to 5 km
500 to 1000 ft
800 to 1500m
200 to 500 ft
< 800m
< 200 ft

METAR - DAON Zenata - Tlemcen - 10 Apr 2020 05:36 UTC - Data Source NOAA   


- Airport Elevation : 814 ft
- IATA code : TLM
- No reported NOTAMs.


DAON - Zenata - Tlemcen

Latest METAR recorded : 2015/08/11 08:00 DAON 110800Z 00000KT 9999 SCT026 31/18 Q1015
TAF TAF DAON
Valid from the 09 at 18:00 until the 10 at 18:00 UTC


091700Z 0918/1018 36005KT 6000 BKN026 SCT100
TEMPO 0919/0921 VRB02KT 6000 RA
BECMG 0922/0924 8000 SCT023 FEW026
TEMPO 1003/1008 4000 BR
BECMG 1008/1010 8000 SCT026
PROB40
TEMPO 1011/1015 34012KT 8000 RA BKN026
BECMG 1016/1018 9999 SCT026

Source NOAA


MET'MAP, your aeronautical weather chart ! - Copyright ORBIFLY December 2007

Programming & Development : Alexandra Zaïnal
Co-Developer : Marc-Olivier Méhu
Technical & hardware support : Manuel Goepfert
Concept & Financing : Baudouin d'Aumeries